createdAt,value
2019-03-28T00:00:00.193Z,13.90
2019-03-28T00:02:28.241Z,14.33
2019-03-28T00:04:56.149Z,14.70
2019-03-28T00:07:24.289Z,14.27
2019-03-28T00:09:52.235Z,14.67
2019-03-28T00:12:20.031Z,14.17
2019-03-28T00:14:47.901Z,14.10
2019-03-28T00:17:15.675Z,14.83
2019-03-28T00:19:44.114Z,15.00
2019-03-28T00:22:17.312Z,14.50
2019-03-28T00:24:53.807Z,13.70
2019-03-28T00:27:21.649Z,14.33
2019-03-28T00:29:49.594Z,15.03
2019-03-28T00:32:17.438Z,14.30
2019-03-28T00:34:45.311Z,14.60
2019-03-28T00:37:13.080Z,14.17
2019-03-28T00:39:40.999Z,15.33
2019-03-28T00:42:10.830Z,14.27
2019-03-28T00:44:38.735Z,15.03
2019-03-28T00:47:06.500Z,15.17
2019-03-28T00:49:34.369Z,15.50
2019-03-28T00:52:02.253Z,14.83
2019-03-28T00:54:30.090Z,14.77
2019-03-28T00:56:57.956Z,15.50
2019-03-28T00:59:25.979Z,15.27
2019-03-28T01:01:53.871Z,15.50
2019-03-28T01:04:21.754Z,15.37
2019-03-28T01:06:49.518Z,14.93
2019-03-28T01:09:17.315Z,16.50
2019-03-28T01:11:45.106Z,15.60
2019-03-28T01:14:13.017Z,15.63
2019-03-28T01:16:40.765Z,15.43
2019-03-28T01:19:08.553Z,15.03
2019-03-28T01:21:36.295Z,17.17
2019-03-28T01:24:04.153Z,16.57
2019-03-28T01:26:31.969Z,16.50
2019-03-28T01:28:59.843Z,17.17
2019-03-28T01:31:27.723Z,17.17
2019-03-28T01:33:55.621Z,18.02
2019-03-28T01:36:23.508Z,17.13
2019-03-28T01:38:51.285Z,18.25
2019-03-28T01:41:19.076Z,17.30
2019-03-28T01:43:46.881Z,17.35
2019-03-28T01:46:14.781Z,16.73
2019-03-28T01:48:42.568Z,17.77
2019-03-28T01:51:10.437Z,18.37
2019-03-28T01:53:38.392Z,17.70
2019-03-28T01:56:06.320Z,18.15
2019-03-28T01:58:34.193Z,18.27
2019-03-28T02:01:02.985Z,18.03
2019-03-28T02:03:31.066Z,17.85
2019-03-28T02:05:58.949Z,18.48
2019-03-28T02:08:26.829Z,17.90
2019-03-28T02:10:54.705Z,18.03
2019-03-28T02:13:22.635Z,18.07
2019-03-28T02:15:50.537Z,16.87
2019-03-28T02:18:18.443Z,17.23
2019-03-28T02:20:46.543Z,18.07
2019-03-28T02:23:14.405Z,17.85
2019-03-28T02:25:42.161Z,17.67
2019-03-28T02:28:10.039Z,17.25
2019-03-28T02:30:37.916Z,18.10
2019-03-28T02:33:05.749Z,18.00
2019-03-28T02:35:33.538Z,17.85
2019-03-28T02:38:01.438Z,18.65
2019-03-28T02:40:29.459Z,18.15
2019-03-28T02:42:57.355Z,18.32
2019-03-28T02:45:25.263Z,17.70
2019-03-28T02:47:53.185Z,18.55
2019-03-28T02:50:21.047Z,17.40
2019-03-28T02:52:48.904Z,18.67
2019-03-28T02:55:16.790Z,18.67
2019-03-28T02:57:44.680Z,17.75
2019-03-28T03:00:12.895Z,18.32
2019-03-28T03:02:40.873Z,18.75
2019-03-28T03:05:09.155Z,17.98
2019-03-28T03:07:37.118Z,18.95
2019-03-28T03:10:05.335Z,18.23
2019-03-28T03:12:33.284Z,19.07
2019-03-28T03:15:01.205Z,18.70
2019-03-28T03:17:29.171Z,18.17
2019-03-28T03:19:56.911Z,18.77
2019-03-28T03:22:24.716Z,17.60
2019-03-28T03:24:52.481Z,20.55
2019-03-28T03:27:20.426Z,18.92
2019-03-28T03:29:48.351Z,20.08
2019-03-28T03:32:16.119Z,19.32
2019-03-28T03:34:43.903Z,19.42
2019-03-28T03:37:11.783Z,19.30
2019-03-28T03:39:39.830Z,20.15
2019-03-28T03:42:07.966Z,19.95
2019-03-28T03:44:35.743Z,20.70
2019-03-28T03:47:03.663Z,20.68
2019-03-28T03:49:31.555Z,20.52
2019-03-28T03:51:59.339Z,20.17
2019-03-28T03:54:27.227Z,20.30
2019-03-28T03:56:55.103Z,21.02
2019-03-28T03:59:23.020Z,20.12
2019-03-28T04:01:50.889Z,20.85
2019-03-28T04:04:18.804Z,21.60
2019-03-28T04:06:46.676Z,20.55
2019-03-28T04:09:14.427Z,21.02
2019-03-28T04:11:42.343Z,20.23
2019-03-28T04:14:10.146Z,19.90
2019-03-28T04:16:37.935Z,21.90
2019-03-28T04:19:06.124Z,21.77
2019-03-28T04:21:34.098Z,21.42
2019-03-28T04:24:02.010Z,21.82
2019-03-28T04:26:29.903Z,21.52
2019-03-28T04:28:57.646Z,20.77
2019-03-28T04:31:25.615Z,22.60
2019-03-28T04:33:53.493Z,21.90
2019-03-28T04:36:21.392Z,22.32
2019-03-28T04:38:50.617Z,21.93
2019-03-28T04:41:18.648Z,21.52
2019-03-28T04:43:46.413Z,22.45
2019-03-28T04:46:14.283Z,22.45
2019-03-28T04:48:42.138Z,22.82
2019-03-28T04:51:11.786Z,21.68
2019-03-28T04:53:39.687Z,21.57
2019-03-28T04:56:07.541Z,22.15
2019-03-28T04:58:44.261Z,21.82
2019-03-28T05:01:05.283Z,22.00
2019-03-28T05:03:33.148Z,21.37
2019-03-28T05:06:01.130Z,21.55
2019-03-28T05:08:28.988Z,21.15
2019-03-28T05:10:56.890Z,22.93
2019-03-28T05:13:24.718Z,22.37
2019-03-28T05:15:52.600Z,22.52
2019-03-28T05:18:20.520Z,21.75
2019-03-28T05:20:48.421Z,22.63
2019-03-28T05:23:16.306Z,22.02
2019-03-28T05:25:44.188Z,21.68
2019-03-28T05:28:12.130Z,21.62
2019-03-28T05:30:40.019Z,23.37
2019-03-28T05:33:07.946Z,23.20
2019-03-28T05:35:35.788Z,21.53
2019-03-28T05:38:03.696Z,22.83
2019-03-28T05:40:31.504Z,24.12
2019-03-28T05:42:59.382Z,24.03
2019-03-28T05:45:27.193Z,23.92
2019-03-28T05:47:55.104Z,22.73
2019-03-28T05:50:22.936Z,23.73
2019-03-28T05:52:50.700Z,24.43
2019-03-28T05:55:18.531Z,23.20
2019-03-28T05:57:46.420Z,23.97
2019-03-28T06:00:14.547Z,23.83
2019-03-28T06:02:42.416Z,24.15
2019-03-28T06:05:10.366Z,23.92
2019-03-28T06:07:38.292Z,23.70
2019-03-28T06:10:06.336Z,24.12
2019-03-28T06:12:34.198Z,24.10
2019-03-28T06:15:02.110Z,24.52
2019-03-28T06:17:29.991Z,24.80
2019-03-28T06:19:57.888Z,24.90
2019-03-28T06:22:26.072Z,24.63
2019-03-28T06:24:53.898Z,25.20
2019-03-28T06:27:21.646Z,25.25
2019-03-28T06:29:49.544Z,23.92
2019-03-28T06:32:17.320Z,23.83
2019-03-28T06:34:45.266Z,25.82
2019-03-28T06:37:13.022Z,25.03
2019-03-28T06:39:40.946Z,25.33
2019-03-28T06:42:08.790Z,24.40
2019-03-28T06:44:36.658Z,24.57
2019-03-28T06:47:04.586Z,23.87
2019-03-28T06:49:32.503Z,23.10
2019-03-28T06:52:00.394Z,23.97
2019-03-28T06:54:28.369Z,23.97
2019-03-28T06:56:56.343Z,24.00
2019-03-28T06:59:36.294Z,24.27
2019-03-28T07:01:53.744Z,23.17
2019-03-28T07:04:21.535Z,23.77
2019-03-28T07:06:49.378Z,24.67
2019-03-28T07:09:17.215Z,23.87
2019-03-28T07:11:44.987Z,23.67
2019-03-28T07:14:12.853Z,23.50
2019-03-28T07:16:40.727Z,23.30
2019-03-28T07:19:08.465Z,24.47
2019-03-28T07:21:36.319Z,24.93
2019-03-28T07:24:04.069Z,25.13
2019-03-28T07:26:31.948Z,24.27
2019-03-28T07:28:59.783Z,24.87
2019-03-28T07:31:27.640Z,24.20
2019-03-28T07:33:55.547Z,24.67
2019-03-28T07:36:23.397Z,25.47
2019-03-28T07:38:52.053Z,25.07
2019-03-28T07:41:19.814Z,25.43
2019-03-28T07:43:47.685Z,24.83
2019-03-28T07:46:15.467Z,25.83
2019-03-28T07:48:43.305Z,24.90
2019-03-28T07:51:11.081Z,25.13
2019-03-28T07:53:38.973Z,24.27
2019-03-28T07:56:06.857Z,25.23
2019-03-28T07:58:35.296Z,24.10
2019-03-28T08:01:03.399Z,23.60
2019-03-28T08:03:31.161Z,24.67
2019-03-28T08:05:59.049Z,24.53
2019-03-28T08:08:38.316Z,25.03
2019-03-28T08:10:56.569Z,24.43
2019-03-28T08:13:24.466Z,23.80
2019-03-28T08:15:52.375Z,24.47
2019-03-28T08:18:23.597Z,24.97
2019-03-28T08:20:50.025Z,24.73
2019-03-28T08:23:17.913Z,25.07
2019-03-28T08:25:45.981Z,24.83
2019-03-28T08:28:13.974Z,25.50
2019-03-28T08:30:45.154Z,26.17
2019-03-28T08:33:11.598Z,24.90
2019-03-28T08:35:39.497Z,26.77
2019-03-28T08:38:10.092Z,26.57
2019-03-28T08:40:39.820Z,26.77
2019-03-28T08:43:07.885Z,25.93
2019-03-28T08:45:35.801Z,28.13
2019-03-28T08:48:03.965Z,24.83
2019-03-28T08:50:31.947Z,25.43
2019-03-28T08:52:59.905Z,25.03
2019-03-28T08:55:27.833Z,25.57
2019-03-28T08:57:55.729Z,25.27
2019-03-28T09:00:33.094Z,28.07
2019-03-28T09:02:53.378Z,26.70
2019-03-28T09:05:21.309Z,27.50
2019-03-28T09:07:49.223Z,27.50
2019-03-28T09:10:17.088Z,27.10
2019-03-28T09:12:44.944Z,26.20
2019-03-28T09:15:13.288Z,26.50
2019-03-28T09:17:41.260Z,26.60
2019-03-28T09:20:09.332Z,25.60
2019-03-28T09:22:38.922Z,26.70
2019-03-28T09:25:07.102Z,26.90
2019-03-28T09:27:34.910Z,27.33
2019-03-28T09:30:02.995Z,28.37
2019-03-28T09:32:30.857Z,26.90
2019-03-28T09:34:58.736Z,28.23
2019-03-28T09:37:26.513Z,28.03
2019-03-28T09:39:54.266Z,26.87
2019-03-28T09:42:22.130Z,27.77
2019-03-28T09:44:49.889Z,28.03
2019-03-28T09:47:17.656Z,30.70
2019-03-28T09:49:45.523Z,27.90
2019-03-28T09:52:13.408Z,27.97
2019-03-28T09:54:41.262Z,29.53
2019-03-28T09:57:09.160Z,29.10
2019-03-28T09:59:37.067Z,28.70
2019-03-28T10:02:05.006Z,29.53
2019-03-28T10:04:32.961Z,30.17
2019-03-28T10:07:00.852Z,28.13
2019-03-28T10:09:28.737Z,27.73
2019-03-28T10:11:56.610Z,29.60
2019-03-28T10:14:24.359Z,29.60
2019-03-28T10:16:52.176Z,30.27
2019-03-28T10:19:20.013Z,30.70
2019-03-28T10:21:47.964Z,31.47
2019-03-28T10:24:15.820Z,28.93
2019-03-28T10:26:43.704Z,30.23
2019-03-28T10:29:11.446Z,29.60
2019-03-28T10:31:39.323Z,29.60
2019-03-28T10:34:07.203Z,30.70
2019-03-28T10:36:35.112Z,29.63
2019-03-28T10:39:04.969Z,29.90
2019-03-28T10:41:32.822Z,29.57
2019-03-28T10:44:00.699Z,29.27
2019-03-28T10:46:28.557Z,29.13
2019-03-28T10:48:56.462Z,28.50
2019-03-28T10:51:24.321Z,28.17
2019-03-28T10:53:52.081Z,26.90
2019-03-28T10:56:22.428Z,26.17
2019-03-28T10:58:50.598Z,27.23
2019-03-28T11:01:32.708Z,25.97
2019-03-28T11:03:48.305Z,24.53
2019-03-28T11:06:16.225Z,24.90
2019-03-28T11:08:44.083Z,24.77
2019-03-28T11:11:11.842Z,26.83
2019-03-28T11:13:39.689Z,23.60
2019-03-28T11:16:07.572Z,22.77
2019-03-28T11:18:35.369Z,22.27
2019-03-28T11:21:03.237Z,22.63
2019-03-28T11:23:31.172Z,22.13
2019-03-28T11:25:58.921Z,18.57
2019-03-28T11:28:26.677Z,21.07
2019-03-28T11:30:54.517Z,21.10
2019-03-28T11:33:22.465Z,21.93
2019-03-28T11:35:50.226Z,20.77
2019-03-28T11:38:17.963Z,20.40
2019-03-28T11:40:45.830Z,20.83
2019-03-28T11:43:13.585Z,22.63
2019-03-28T11:45:41.575Z,20.80
2019-03-28T11:48:09.453Z,20.50
2019-03-28T11:50:37.248Z,20.57
2019-03-28T11:53:05.001Z,19.40
2019-03-28T11:55:32.890Z,19.67
2019-03-28T11:58:00.646Z,17.33
2019-03-28T12:00:29.524Z,16.50
2019-03-28T12:02:57.570Z,15.73
2019-03-28T12:05:25.331Z,14.73
2019-03-28T12:07:53.082Z,15.47
2019-03-28T12:10:20.875Z,14.70
2019-03-28T12:12:48.746Z,16.53
2019-03-28T12:15:16.613Z,14.63
2019-03-28T12:17:44.488Z,16.83
2019-03-28T12:20:12.328Z,17.13
2019-03-28T12:22:40.337Z,17.93
2019-03-28T12:25:09.229Z,16.67
2019-03-28T12:27:37.109Z,18.27
2019-03-28T12:30:06.072Z,19.07
2019-03-28T12:32:33.923Z,19.10
2019-03-28T12:35:01.826Z,19.00
2019-03-28T12:37:29.567Z,19.30
2019-03-28T12:39:59.852Z,19.93
2019-03-28T12:42:27.165Z,19.10
2019-03-28T12:44:57.147Z,18.87
2019-03-28T12:47:24.681Z,19.57
2019-03-28T12:49:52.935Z,18.27
2019-03-28T12:52:20.683Z,18.77
2019-03-28T12:54:48.550Z,18.70
2019-03-28T12:57:16.290Z,19.20
2019-03-28T12:59:44.187Z,19.10
2019-03-28T13:02:27.111Z,20.17
2019-03-28T13:04:43.142Z,18.67
2019-03-28T13:07:10.892Z,20.30
2019-03-28T13:09:38.749Z,20.07
2019-03-28T13:12:06.620Z,20.37
2019-03-28T13:14:34.474Z,21.13
2019-03-28T13:17:02.368Z,21.27
2019-03-28T13:19:30.222Z,20.83
2019-03-28T13:21:58.126Z,22.43
2019-03-28T13:24:25.928Z,22.93
2019-03-28T13:26:53.805Z,21.93
2019-03-28T13:29:21.589Z,22.73
2019-03-28T13:31:49.437Z,21.87
2019-03-28T13:34:17.206Z,22.67
2019-03-28T13:36:45.062Z,21.93
2019-03-28T13:39:12.832Z,21.20
2019-03-28T13:41:40.681Z,22.20
2019-03-28T13:44:08.568Z,22.43
2019-03-28T13:46:36.316Z,22.80
2019-03-28T13:49:04.194Z,24.20
2019-03-28T13:51:32.056Z,23.13
2019-03-28T13:54:01.856Z,22.23
2019-03-28T13:56:29.626Z,22.23
2019-03-28T13:58:57.516Z,22.33
2019-03-28T14:01:26.321Z,22.20
2019-03-28T14:03:54.250Z,23.07
2019-03-28T14:06:22.216Z,22.43
2019-03-28T14:08:50.060Z,22.30
2019-03-28T14:11:17.940Z,21.70
2019-03-28T14:13:45.687Z,22.23
2019-03-28T14:16:13.438Z,22.73
2019-03-28T14:18:41.228Z,23.37
2019-03-28T14:21:09.119Z,23.30
2019-03-28T14:23:37.007Z,23.30
2019-03-28T14:26:04.896Z,23.93
2019-03-28T14:28:32.812Z,23.27
2019-03-28T14:31:00.993Z,24.13
2019-03-28T14:33:29.092Z,24.37
2019-03-28T14:35:56.937Z,25.30
2019-03-28T14:38:24.812Z,24.90
2019-03-28T14:40:52.672Z,25.33
2019-03-28T14:43:20.515Z,23.90
2019-03-28T14:45:48.376Z,23.70
2019-03-28T14:48:16.229Z,24.10
2019-03-28T14:50:44.316Z,24.50
2019-03-28T14:53:12.091Z,25.10
2019-03-28T14:55:39.861Z,24.73
2019-03-28T14:58:07.852Z,25.13
2019-03-28T15:00:47.335Z,24.37
2019-03-28T15:03:25.704Z,23.63
2019-03-28T15:05:45.467Z,24.03
2019-03-28T15:08:13.319Z,22.60
2019-03-28T15:10:41.872Z,20.97
2019-03-28T15:13:09.756Z,23.77
2019-03-28T15:15:37.495Z,24.70
2019-03-28T15:18:05.445Z,24.57
2019-03-28T15:20:33.212Z,24.33
2019-03-28T15:23:00.944Z,27.40
2019-03-28T15:25:28.820Z,26.43
2019-03-28T15:27:56.902Z,26.77
2019-03-28T15:30:24.720Z,30.20
2019-03-28T15:32:52.486Z,24.33
2019-03-28T15:35:20.240Z,23.13
2019-03-28T15:37:48.090Z,23.03
2019-03-28T15:40:16.308Z,22.03
2019-03-28T15:42:44.196Z,22.80
2019-03-28T15:45:12.166Z,22.83
2019-03-28T15:47:40.001Z,23.00
2019-03-28T15:50:08.356Z,23.70
2019-03-28T15:52:36.221Z,20.53
2019-03-28T15:55:04.730Z,21.30
2019-03-28T15:57:32.581Z,21.37
2019-03-28T16:00:00.530Z,21.87
2019-03-28T16:02:28.828Z,23.37
2019-03-28T16:04:56.676Z,22.90
2019-03-28T16:07:24.551Z,23.33
2019-03-28T16:09:52.372Z,25.17
2019-03-28T16:12:20.254Z,23.67
2019-03-28T16:14:48.228Z,26.70
2019-03-28T16:17:16.061Z,28.60
2019-03-28T16:19:45.256Z,27.67
2019-03-28T16:22:15.565Z,26.63
2019-03-28T16:24:42.894Z,25.80
2019-03-28T16:27:10.648Z,25.53
2019-03-28T16:29:38.522Z,27.00
2019-03-28T16:32:06.256Z,27.23
2019-03-28T16:34:34.116Z,26.07
2019-03-28T16:37:02.029Z,24.73
2019-03-28T16:39:29.848Z,25.80
2019-03-28T16:41:57.707Z,24.40
2019-03-28T16:44:25.594Z,24.53
2019-03-28T16:46:53.426Z,24.47
2019-03-28T16:49:21.308Z,24.53
2019-03-28T16:51:49.072Z,22.70
2019-03-28T16:54:16.966Z,23.80
2019-03-28T16:56:44.733Z,23.60
2019-03-28T16:59:12.640Z,24.73
2019-03-28T17:01:40.393Z,25.60
2019-03-28T17:04:20.052Z,25.13
2019-03-28T17:06:38.217Z,24.13
2019-03-28T17:09:06.539Z,22.33
2019-03-28T17:11:34.405Z,23.47
2019-03-28T17:14:02.269Z,24.07
2019-03-28T17:16:30.006Z,23.03
2019-03-28T17:18:57.813Z,23.23
2019-03-28T17:21:25.577Z,22.63
2019-03-28T17:23:53.903Z,23.30
2019-03-28T17:26:21.928Z,23.33
2019-03-28T17:28:49.840Z,25.03
2019-03-28T17:31:18.876Z,24.60
2019-03-28T17:33:46.957Z,26.27
2019-03-28T17:36:14.720Z,25.00
2019-03-28T17:38:42.592Z,24.80
2019-03-28T17:41:10.477Z,24.67
2019-03-28T17:43:38.338Z,23.07
2019-03-28T17:46:06.211Z,22.50
2019-03-28T17:48:34.098Z,23.43
2019-03-28T17:51:01.878Z,23.60
2019-03-28T17:53:29.779Z,24.07
2019-03-28T17:55:58.731Z,24.73
2019-03-28T17:58:26.498Z,25.03
2019-03-28T18:00:54.338Z,26.20
2019-03-28T18:03:31.087Z,27.53
2019-03-28T18:05:57.890Z,27.87
2019-03-28T18:08:21.544Z,27.37
2019-03-28T18:10:49.290Z,24.97
2019-03-28T18:13:17.195Z,25.40
2019-03-28T18:15:45.053Z,24.03
2019-03-28T18:18:12.780Z,22.70
2019-03-28T18:20:40.623Z,22.60
2019-03-28T18:23:08.491Z,22.60
2019-03-28T18:25:36.389Z,23.10
2019-03-28T18:28:04.230Z,23.50
2019-03-28T18:30:32.009Z,23.63
2019-03-28T18:32:59.863Z,23.20
2019-03-28T18:35:27.642Z,23.17
2019-03-28T18:37:55.500Z,22.03
2019-03-28T18:40:23.278Z,22.57
2019-03-28T18:42:51.022Z,22.53
2019-03-28T18:45:18.882Z,22.40
2019-03-28T18:47:46.670Z,22.20
2019-03-28T18:50:14.936Z,24.03
2019-03-28T18:52:42.830Z,23.77
2019-03-28T18:55:10.795Z,22.70
2019-03-28T18:57:39.120Z,23.93
2019-03-28T19:00:07.877Z,23.60
2019-03-28T19:02:35.744Z,24.50
2019-03-28T19:05:04.171Z,25.07
2019-03-28T19:07:32.068Z,22.93
2019-03-28T19:09:59.923Z,24.40
2019-03-28T19:12:27.720Z,24.57
2019-03-28T19:14:55.565Z,26.10
2019-03-28T19:17:23.361Z,25.70
2019-03-28T19:19:51.108Z,26.20
2019-03-28T19:22:18.866Z,26.60
2019-03-28T19:24:46.760Z,25.77
2019-03-28T19:27:14.576Z,25.93
2019-03-28T19:29:42.476Z,27.10
2019-03-28T19:32:10.383Z,26.93
2019-03-28T19:34:38.256Z,26.77
2019-03-28T19:37:06.296Z,26.30
2019-03-28T19:39:34.373Z,26.13
2019-03-28T19:42:04.410Z,27.37
2019-03-28T19:44:32.082Z,28.03
2019-03-28T19:47:00.068Z,27.27
2019-03-28T19:49:27.919Z,25.87
2019-03-28T19:51:55.805Z,26.63
2019-03-28T19:54:23.726Z,27.27
2019-03-28T19:56:51.611Z,28.40
2019-03-28T19:59:19.542Z,27.17
2019-03-28T20:01:47.555Z,26.27
2019-03-28T20:04:15.506Z,27.37
2019-03-28T20:06:43.361Z,25.73
2019-03-28T20:09:16.543Z,26.83
2019-03-28T20:11:41.029Z,26.43
2019-03-28T20:14:08.955Z,26.67
2019-03-28T20:16:36.871Z,26.87
2019-03-28T20:19:04.809Z,27.30
2019-03-28T20:21:32.700Z,27.60
2019-03-28T20:24:00.566Z,28.50
2019-03-28T20:26:28.330Z,28.50
2019-03-28T20:28:56.234Z,28.30
2019-03-28T20:31:24.117Z,27.47
2019-03-28T20:33:52.014Z,28.57
2019-03-28T20:36:36.909Z,27.17
2019-03-28T20:39:02.972Z,27.97
2019-03-28T20:41:19.457Z,26.53
2019-03-28T20:43:47.393Z,29.03
2019-03-28T20:46:15.320Z,28.67
2019-03-28T20:48:43.264Z,26.53
2019-03-28T20:51:11.253Z,28.17
2019-03-28T20:53:39.184Z,29.33
2019-03-28T20:56:07.149Z,27.97
2019-03-28T20:58:35.083Z,28.77
2019-03-28T21:01:03.111Z,29.40
2019-03-28T21:03:31.012Z,28.50
2019-03-28T21:05:59.094Z,27.63
2019-03-28T21:08:27.274Z,28.33
2019-03-28T21:10:55.099Z,27.50
2019-03-28T21:13:23.038Z,27.87
2019-03-28T21:15:50.992Z,30.00
2019-03-28T21:18:18.981Z,28.43
2019-03-28T21:20:46.908Z,29.47
2019-03-28T21:23:14.836Z,29.90
2019-03-28T21:25:42.824Z,28.67
2019-03-28T21:28:13.698Z,29.53
2019-03-28T21:30:47.100Z,28.23
2019-03-28T21:33:10.474Z,30.13
2019-03-28T21:35:39.102Z,30.63
2019-03-28T21:38:07.361Z,30.97
2019-03-28T21:40:35.721Z,30.23
2019-03-28T21:43:04.763Z,31.73
2019-03-28T21:45:32.720Z,29.67
2019-03-28T21:48:00.648Z,30.80
2019-03-28T21:50:29.416Z,30.57
2019-03-28T21:52:57.214Z,32.17
2019-03-28T21:55:25.102Z,30.67
2019-03-28T21:57:53.036Z,32.47
2019-03-28T22:00:21.125Z,31.60
2019-03-28T22:02:48.910Z,32.57
2019-03-28T22:05:16.692Z,30.67
2019-03-28T22:07:44.632Z,32.57
2019-03-28T22:10:12.961Z,32.43
2019-03-28T22:12:40.855Z,31.63
2019-03-28T22:15:08.948Z,32.60
2019-03-28T22:17:36.823Z,32.57
2019-03-28T22:20:05.067Z,33.03
2019-03-28T22:22:32.930Z,32.80
2019-03-28T22:25:00.739Z,32.00
2019-03-28T22:27:28.654Z,31.97
2019-03-28T22:29:56.437Z,33.13
2019-03-28T22:32:24.342Z,33.70
2019-03-28T22:34:52.210Z,34.30
2019-03-28T22:37:20.083Z,34.90
2019-03-28T22:39:47.881Z,35.00
2019-03-28T22:42:15.738Z,33.30
2019-03-28T22:44:43.638Z,32.97
2019-03-28T22:47:11.751Z,32.57
2019-03-28T22:49:39.525Z,33.73
2019-03-28T22:52:07.409Z,35.17
2019-03-28T22:54:35.325Z,35.27
2019-03-28T22:57:03.203Z,35.70
2019-03-28T22:59:31.107Z,35.67
2019-03-28T23:01:58.978Z,34.13
2019-03-28T23:04:26.761Z,35.77
2019-03-28T23:06:54.692Z,35.27
2019-03-28T23:09:22.569Z,33.13
2019-03-28T23:11:50.481Z,34.03
2019-03-28T23:14:20.058Z,34.40
2019-03-28T23:16:47.949Z,35.00
2019-03-28T23:19:15.819Z,35.23
2019-03-28T23:21:44.049Z,33.30
2019-03-28T23:24:11.834Z,34.60
2019-03-28T23:26:39.771Z,34.53
2019-03-28T23:29:07.672Z,33.40
2019-03-28T23:31:35.447Z,33.53
2019-03-28T23:34:03.391Z,35.13
2019-03-28T23:36:31.253Z,35.13
2019-03-28T23:38:59.250Z,33.73
2019-03-28T23:41:27.161Z,34.57
2019-03-28T23:43:54.953Z,34.57
2019-03-28T23:46:22.858Z,34.87
2019-03-28T23:48:50.721Z,33.10
2019-03-28T23:51:18.594Z,34.37
2019-03-28T23:53:46.545Z,34.33
2019-03-28T23:56:14.458Z,34.13
2019-03-28T23:58:42.307Z,34.37
